Time;durP1;ratioP1;P1;durP2;ratioP2;P2;SDS_P1;SDS_P2;PMS_P1;PMS_P2;Temp;Humidity;BMP_temperature;BMP_pressure;BME280_temperature;BME280_humidity;BME280_pressure;Samples;Min_cycle;Max_cycle;Signal;HPM_P1;HPM_P2
2022/12/26 00:01:28;;;;;;;12.02;5.38;;;;;;;8.64;100.00;101150.00;5054887;27;100372;-30
2022/12/26 00:03:55;;;;;;;9.52;4.82;;;;;;;8.64;100.00;101149.16;5056021;27;96803;-30
2022/12/26 00:06:23;;;;;;;12.50;5.55;;;;;;;8.62;100.00;101145.63;5055947;27;97094;-31
2022/12/26 00:08:49;;;;;;;10.85;5.05;;;;;;;8.63;100.00;101147.41;5054888;27;97365;-30
2022/12/26 00:11:15;;;;;;;10.23;5.03;;;;;;;8.60;100.00;101142.13;5055332;27;97268;-30
2022/12/26 00:13:41;;;;;;;7.47;4.22;;;;;;;8.63;100.00;101153.69;5054265;27;97046;-32
2022/12/26 00:16:16;;;;;;;8.32;4.60;;;;;;;8.64;100.00;101159.94;5054329;27;97023;-31
2022/12/26 00:18:42;;;;;;;9.30;4.70;;;;;;;8.64;100.00;101157.25;5052875;27;101067;-30
2022/12/26 00:21:09;;;;;;;9.82;4.68;;;;;;;8.65;100.00;101172.47;5053680;27;100854;-32
2022/12/26 00:23:36;;;;;;;12.10;4.82;;;;;;;8.62;100.00;101170.81;5053737;27;96907;-30
2022/12/26 00:26:07;;;;;;;8.77;3.63;;;;;;;8.64;100.00;101170.75;5054599;27;96873;-30
2022/12/26 00:28:32;;;;;;;8.77;4.50;;;;;;;8.61;100.00;101160.09;5053840;27;100995;-30
2022/12/26 00:31:01;;;;;;;11.70;4.60;;;;;;;8.64;100.00;101165.34;5055339;27;97769;-31
2022/12/26 00:33:26;;;;;;;9.27;4.47;;;;;;;8.61;100.00;101169.06;5054612;27;96909;-30
2022/12/26 00:35:52;;;;;;;12.23;5.38;;;;;;;8.65;100.00;101167.09;5055609;27;96792;-30
2022/12/26 00:38:17;;;;;;;9.32;4.55;;;;;;;8.62;100.00;101151.03;5055116;27;97932;-30
2022/12/26 00:40:43;;;;;;;11.45;4.85;;;;;;;8.63;100.00;101169.88;5055053;27;97345;-30
2022/12/26 00:43:09;;;;;;;9.30;4.10;;;;;;;8.64;100.00;101166.22;5054093;27;96609;-30
2022/12/26 00:45:35;;;;;;;10.98;5.50;;;;;;;8.63;100.00;101169.00;5055502;27;96790;-30
2022/12/26 00:48:01;;;;;;;9.38;4.53;;;;;;;8.62;100.00;101162.72;5053467;27;100965;-30
2022/12/26 00:50:26;;;;;;;15.00;5.00;;;;;;;8.64;100.00;101174.31;5053706;27;100986;-30
2022/12/26 00:52:52;;;;;;;9.48;4.75;;;;;;;8.64;100.00;101166.22;5055097;27;96773;-31
2022/12/26 00:55:17;;;;;;;13.35;5.35;;;;;;;8.65;100.00;101159.88;5055386;27;96761;-33
2022/12/26 00:57:42;;;;;;;9.80;4.50;;;;;;;8.64;100.00;101155.41;5054420;27;98040;-30
2022/12/26 01:00:08;;;;;;;8.35;4.43;;;;;;;8.66;100.00;101153.53;5054892;27;98040;-31
2022/12/26 01:02:36;;;;;;;8.20;4.50;;;;;;;8.66;100.00;101152.66;5054941;27;96818;-30
2022/12/26 01:05:03;;;;;;;9.05;4.55;;;;;;;8.62;100.00;101151.03;5054977;27;96734;-32
2022/12/26 01:07:31;;;;;;;9.73;4.47;;;;;;;8.62;100.00;101164.53;5052991;27;101932;-31
2022/12/26 01:09:56;;;;;;;11.30;4.55;;;;;;;8.61;100.00;101166.38;5054665;27;97857;-30
2022/12/26 01:12:22;;;;;;;9.00;4.43;;;;;;;8.63;100.00;101160.91;5055027;27;96616;-30
2022/12/26 01:14:47;;;;;;;7.90;4.55;;;;;;;8.62;100.00;101149.22;5055416;27;96822;-30
2022/12/26 01:17:12;;;;;;;8.23;4.70;;;;;;;8.62;100.00;101156.44;5054768;27;97191;-30
2022/12/26 01:19:38;;;;;;;8.32;4.55;;;;;;;8.60;100.00;101148.41;5054622;27;97397;-30
2022/12/26 01:22:03;;;;;;;7.35;3.83;;;;;;;8.62;100.00;101151.91;5053772;27;96627;-31
2022/12/26 01:24:28;;;;;;;8.23;3.90;;;;;;;8.61;100.00;101150.16;5054679;27;96846;-30
2022/12/26 01:26:54;;;;;;;7.45;3.83;;;;;;;8.61;100.00;101152.00;5054700;27;97539;-30
2022/12/26 01:29:19;;;;;;;9.05;3.78;;;;;;;8.59;100.00;101146.66;5054631;27;99158;-31
2022/12/26 01:31:44;;;;;;;8.77;4.20;;;;;;;8.61;100.00;101144.78;5058093;27;96674;-32
2022/12/26 01:34:10;;;;;;;7.00;3.65;;;;;;;8.62;100.00;101145.63;5058451;27;96998;-30
2022/12/26 01:36:35;;;;;;;9.65;3.67;;;;;;;8.61;100.00;101138.50;5057799;27;97710;-30
2022/12/26 01:39:00;;;;;;;6.95;3.50;;;;;;;8.63;100.00;101152.81;5056787;27;97993;-31
2022/12/26 01:41:26;;;;;;;7.88;4.32;;;;;;;8.62;100.00;101151.03;5058281;27;96663;-30
2022/12/26 01:43:58;;;;;;;7.90;3.75;;;;;;;8.63;100.00;101150.09;5057988;27;96595;-30
2022/12/26 01:46:43;;;;;;;9.98;3.30;;;;;;;8.64;100.00;101159.94;5055884;27;100970;-30
2022/12/26 01:49:33;;;;;;;9.10;4.50;;;;;;;8.64;100.00;101162.66;5057784;27;98069;-30
2022/12/26 01:52:04;;;;;;;7.88;4.22;;;;;;;8.63;100.00;101158.22;5058393;27;96660;-32
2022/12/26 01:54:34;;;;;;;9.77;3.65;;;;;;;8.63;100.00;101152.81;5056704;27;96732;-31
2022/12/26 01:57:05;;;;;;;8.35;4.53;;;;;;;8.65;100.00;101161.69;5039827;27;101209;-30
2022/12/26 01:59:34;;;;;;;7.13;3.80;;;;;;;8.62;100.00;101161.84;5056100;27;101077;-30
2022/12/26 02:02:00;;;;;;;8.02;4.07;;;;;;;8.63;100.00;101163.59;5056399;27;96771;-30
2022/12/26 02:07:18;;;;;;;9.43;4.25;;;;;;;8.58;100.00;101153.03;5057787;27;97060;-30
2022/12/26 02:09:43;;;;;;;7.22;4.15;;;;;;;8.57;100.00;101153.97;5057398;27;97638;-30
2022/12/26 02:12:19;;;;;;;10.43;4.72;;;;;;;8.57;100.00;101161.19;5057132;27;96628;-30
2022/12/26 02:14:46;;;;;;;8.43;5.47;;;;;;;8.53;100.00;101151.47;5056259;27;96868;-31
2022/12/26 02:17:12;;;;;;;9.07;4.68;;;;;;;8.50;100.00;101152.50;5055966;27;101239;-30
2022/12/26 02:20:04;;;;;;;10.85;5.28;;;;;;;8.45;100.00;101158.13;5057104;27;97951;-30
2022/12/26 02:22:50;;;;;;;7.93;3.97;;;;;;;8.44;100.00;101158.22;5056889;27;96968;-30
2022/12/26 02:25:37;;;;;;;10.52;4.07;;;;;;;8.38;100.00;101140.44;5057742;27;96726;-32
2022/12/26 02:28:37;;;;;;;8.13;4.05;;;;;;;8.36;100.00;101152.25;5057423;27;97604;-31
2022/12/26 02:31:26;;;;;;;7.10;4.15;;;;;;;8.30;100.00;101146.22;5057696;27;97858;-30
2022/12/26 02:33:57;;;;;;;7.70;4.18;;;;;;;8.31;100.00;101157.88;5057625;27;96559;-31
2022/12/26 02:36:32;;;;;;;8.17;4.27;;;;;;;8.28;100.00;101160.72;5057245;27;97017;-30
2022/12/26 02:39:18;;;;;;;5.85;3.17;;;;;;;8.26;100.00;101158.09;5056485;27;97946;-30
2022/12/26 02:42:12;;;;;;;8.23;3.40;;;;;;;8.27;100.00;101154.47;5055894;27;97377;-30
2022/12/26 02:47:34;;;;;;;;;;;;;;;8.25;100.00;101148.25;5057775;27;96676;-30
2022/12/26 03:14:04;;;;;;;6.95;4.22;;;;;;;8.11;100.00;101157.94;5056921;27;97102;-30
2022/12/26 03:19:14;;;;;;;10.15;5.03;;;;;;;8.12;100.00;101159.69;5057290;27;96644;-30
2022/12/26 03:21:43;;;;;;;8.98;4.50;;;;;;;8.13;100.00;101166.81;5056029;27;96785;-30
2022/12/26 03:24:12;;;;;;;10.43;4.22;;;;;;;8.11;100.00;101166.91;5054940;27;100869;-30
2022/12/26 03:26:46;;;;;;;7.00;3.78;;;;;;;8.08;100.00;101151.75;5055044;27;100785;-31
2022/12/26 03:32:07;;;;;;;8.05;4.40;;;;;;;8.06;100.00;101147.38;5056690;27;96465;-30
2022/12/26 03:34:36;;;;;;;9.07;4.32;;;;;;;8.05;100.00;101140.19;5054143;27;101111;-31
2022/12/26 03:37:31;;;;;;;7.93;4.13;;;;;;;8.06;100.00;101155.47;5054503;27;100509;-30
2022/12/26 04:44:25;;;;;;;3.25;1.52;;;;;;;7.99;100.00;101154.84;5055359;27;97194;-30
2022/12/26 04:46:52;;;;;;;3.88;2.05;;;;;;;7.98;100.00;101160.31;5053450;27;101045;-30
2022/12/26 04:52:09;;;;;;;2.95;1.52;;;;;;;7.99;100.00;101156.69;5056249;27;96477;-30
2022/12/26 04:54:34;;;;;;;1.60;1.20;;;;;;;7.99;100.00;101154.00;5053023;27;100834;-31
2022/12/26 04:57:00;;;;;;;5.45;1.75;;;;;;;7.97;100.00;101145.97;5054982;27;98387;-30
2022/12/26 04:59:26;;;;;;;1.77;1.15;;;;;;;7.96;100.00;101144.22;5054771;27;96468;-30
2022/12/26 05:10:21;;;;;;;2.65;1.77;;;;;;;7.91;100.00;101146.22;5058898;27;96588;-30
2022/12/26 05:12:46;;;;;;;1.73;0.98;;;;;;;7.91;100.00;101150.75;5057323;27;96932;-31
2022/12/26 05:15:12;;;;;;;2.00;1.42;;;;;;;7.90;100.00;101151.72;5058091;27;99615;-30
2022/12/26 05:28:41;;;;;;;1.50;1.10;;;;;;;7.88;100.00;101152.63;5058500;27;96887;-31
2022/12/26 05:31:08;;;;;;;2.30;1.33;;;;;;;7.90;100.00;101152.56;5056691;27;96737;-30
2022/12/26 05:36:20;;;;;;;2.75;1.02;;;;;;;7.92;100.00;101149.81;5057959;27;97124;-30
2022/12/26 05:38:45;;;;;;;3.80;1.40;;;;;;;7.93;100.00;101163.22;5056585;27;101145;-30
2022/12/26 05:41:11;;;;;;;2.35;1.35;;;;;;;7.94;100.00;101159.59;5056830;27;96541;-30
2022/12/26 05:43:36;;;;;;;2.88;1.70;;;;;;;7.94;100.00;101153.34;5058654;27;96734;-29
2022/12/26 05:46:01;;;;;;;2.65;1.75;;;;;;;7.93;100.00;101151.56;5057828;27;99314;-30
2022/12/26 05:48:27;;;;;;;2.33;1.45;;;;;;;7.93;100.00;101147.03;5056497;27;101322;-30
2022/12/26 05:50:57;;;;;;;2.70;1.50;;;;;;;7.92;100.00;101147.13;5057456;27;96743;-30
2022/12/26 05:53:23;;;;;;;3.05;1.75;;;;;;;7.90;100.00;101133.69;5056724;27;96815;-30
2022/12/26 05:55:48;;;;;;;3.80;1.98;;;;;;;7.90;100.00;101133.69;5057784;27;97416;-31
2022/12/26 05:58:13;;;;;;;1.38;0.98;;;;;;;7.90;100.00;101139.09;5057612;27;97304;-31
2022/12/26 06:00:38;;;;;;;4.35;1.75;;;;;;;7.88;100.00;101130.19;5056483;27;96557;-30
2022/12/26 06:03:04;;;;;;;5.05;1.75;;;;;;;7.91;100.00;101140.84;5057981;27;96805;-30
2022/12/26 06:05:29;;;;;;;1.67;1.15;;;;;;;7.92;100.00;101147.13;5057440;27;99451;-29
2022/12/26 06:07:54;;;;;;;3.33;1.50;;;;;;;7.92;100.00;101147.13;5057607;27;99286;-31
2022/12/26 06:10:20;;;;;;;6.65;1.90;;;;;;;7.91;100.00;101154.31;5057698;27;96568;-30
2022/12/26 06:12:45;;;;;;;1.33;0.95;;;;;;;7.91;100.00;101157.00;5058039;27;96913;-29
2022/12/26 06:15:11;;;;;;;2.35;1.42;;;;;;;7.95;100.00;101152.38;5056871;27;97979;-30
2022/12/26 06:17:37;;;;;;;2.70;0.98;;;;;;;7.95;100.00;101155.06;5057403;27;97812;-31
2022/12/26 06:20:02;;;;;;;1.55;0.80;;;;;;;7.92;100.00;101150.69;5057583;27;96738;-30
2022/12/26 06:22:28;;;;;;;2.78;1.38;;;;;;;7.95;100.00;101155.94;5056870;27;96757;-30
2022/12/26 06:24:54;;;;;;;0.98;0.82;;;;;;;7.90;100.00;101149.88;5055802;27;100982;-29
2022/12/26 06:27:19;;;;;;;2.72;1.40;;;;;;;7.92;100.00;101156.09;5057530;27;96535;-30
2022/12/26 06:29:45;;;;;;;4.30;1.92;;;;;;;7.95;100.00;101147.84;5057396;27;97528;-30
2022/12/26 06:32:10;;;;;;;7.90;1.60;;;;;;;7.96;100.00;101154.09;5057508;27;96790;-30
2022/12/26 06:34:35;;;;;;;1.42;1.05;;;;;;;7.98;100.00;101149.53;5056688;27;99191;-30
2022/12/26 06:37:01;;;;;;;3.63;1.50;;;;;;;7.96;100.00;101144.22;5057198;27;97285;-30
2022/12/26 06:39:26;;;;;;;2.78;1.02;;;;;;;7.94;100.00;101147.94;5056940;27;96470;-31
2022/12/26 06:41:51;;;;;;;3.42;1.90;;;;;;;7.96;100.00;101135.22;5057541;27;96781;-32
2022/12/26 06:44:17;;;;;;;3.42;1.15;;;;;;;7.96;100.00;101144.22;5057272;27;97348;-30
2022/12/26 06:46:42;;;;;;;0.70;0.70;;;;;;;7.99;100.00;101157.56;5056971;27;97872;-30
2022/12/26 06:49:07;;;;;;;6.07;1.42;;;;;;;7.99;100.00;101151.28;5057460;27;96691;-30
2022/12/26 06:51:34;;;;;;;2.58;1.70;;;;;;;7.98;100.00;101149.53;5057233;27;96813;-30
2022/12/26 06:54:03;;;;;;;2.25;1.23;;;;;;;8.00;100.00;101167.38;5055361;27;101006;-30
2022/12/26 06:56:30;;;;;;;2.80;1.45;;;;;;;8.01;100.00;101165.59;5057096;27;97845;-30
2022/12/26 06:59:00;;;;;;;2.70;1.67;;;;;;;8.05;100.00;101175.28;5055556;27;96677;-30
2022/12/26 07:01:28;;;;;;;2.22;1.40;;;;;;;8.06;100.00;101180.59;5055244;27;96816;-30
2022/12/26 07:03:54;;;;;;;2.85;0.82;;;;;;;8.11;100.00;101174.13;5054857;27;100654;-30
2022/12/26 07:06:26;;;;;;;4.88;1.20;;;;;;;8.14;100.00;101176.69;5055182;27;100759;-30
2022/12/26 07:08:53;;;;;;;1.75;1.05;;;;;;;8.13;100.00;101158.72;5055504;27;96619;-30
2022/12/26 07:11:21;;;;;;;4.18;1.48;;;;;;;8.12;100.00;101168.66;5055396;27;96952;-30
2022/12/26 07:13:47;;;;;;;3.65;1.40;;;;;;;8.16;100.00;101172.09;5054958;27;101020;-31
2022/12/26 07:16:13;;;;;;;2.28;1.20;;;;;;;8.16;100.00;101170.25;5056037;27;99161;-30
2022/12/26 07:18:39;;;;;;;1.77;1.02;;;;;;;8.17;100.00;101165.75;5055328;27;96763;-30
2022/12/26 07:21:06;;;;;;;1.75;0.98;;;;;;;8.17;100.00;101171.13;5055276;27;96779;-30
2022/12/26 07:23:31;;;;;;;2.05;1.02;;;;;;;8.19;100.00;101164.72;5054571;27;101059;-31
2022/12/26 07:25:56;;;;;;;1.45;0.88;;;;;;;8.21;100.00;101172.75;5056369;27;97814;-30
2022/12/26 07:28:22;;;;;;;5.07;1.20;;;;;;;8.25;100.00;101179.75;5055257;27;96553;-30
2022/12/26 07:30:48;;;;;;;1.67;1.33;;;;;;;8.27;100.00;101191.34;5056229;27;96886;-30
2022/12/26 07:33:15;;;;;;;3.17;1.27;;;;;;;8.28;100.00;101195.81;5054368;27;100728;-32
2022/12/26 07:35:41;;;;;;;1.48;1.20;;;;;;;8.27;100.00;101164.34;5056178;27;97319;-30
2022/12/26 07:38:06;;;;;;;1.13;0.93;;;;;;;8.30;100.00;101169.63;5054985;27;96748;-30
2022/12/26 07:40:31;;;;;;;9.80;1.58;;;;;;;8.29;100.00;101176.84;5056673;27;96733;-30
2022/12/26 07:42:57;;;;;;;2.35;1.27;;;;;;;8.30;100.00;101173.19;5056339;27;97286;-29
2022/12/26 07:45:23;;;;;;;1.92;1.30;;;;;;;8.32;100.00;101166.84;5056230;27;97264;-30
2022/12/26 07:47:52;;;;;;;0.85;0.50;;;;;;;8.31;100.00;101157.88;5056219;27;96668;-32
2022/12/26 07:50:18;;;;;;;2.42;0.88;;;;;;;8.33;100.00;101158.69;5054633;27;96853;-30
2022/12/26 07:52:43;;;;;;;0.75;0.63;;;;;;;8.30;100.00;101164.22;5055409;27;97401;-30
2022/12/26 07:55:08;;;;;;;0.70;0.57;;;;;;;8.30;100.00;101177.72;5056112;27;99288;-31
2022/12/26 07:57:34;;;;;;;2.08;0.77;;;;;;;8.32;100.00;101172.22;5056206;27;96611;-30
2022/12/26 07:59:59;;;;;;;2.42;0.98;;;;;;;8.31;100.00;101168.66;5055996;27;96950;-30
2022/12/26 08:02:25;;;;;;;3.47;0.88;;;;;;;8.33;100.00;101174.88;5055716;27;97866;-32
2022/12/26 08:04:50;;;;;;;1.40;0.80;;;;;;;8.33;100.00;101177.56;5055567;27;99158;-30
2022/12/26 08:07:15;;;;;;;2.92;1.10;;;;;;;8.36;100.00;101176.56;5056030;27;96684;-30
2022/12/26 08:09:43;;;;;;;2.92;1.00;;;;;;;8.37;100.00;101195.38;5056228;27;96822;-31
2022/12/26 08:12:09;;;;;;;1.63;1.08;;;;;;;8.40;100.00;101200.66;5055360;27;99330;-30
2022/12/26 08:14:36;;;;;;;1.33;0.90;;;;;;;8.43;100.00;101210.44;5055442;27;97807;-32
2022/12/26 08:17:01;;;;;;;2.30;1.40;;;;;;;8.45;100.00;101206.72;5053898;27;96763;-31
2022/12/26 08:19:27;;;;;;;2.92;1.13;;;;;;;8.45;100.00;101203.16;5055849;27;96789;-30
2022/12/26 08:21:52;;;;;;;1.88;1.30;;;;;;;8.47;100.00;101222.84;5055123;27;97484;-30
2022/12/26 08:24:17;;;;;;;3.20;0.85;;;;;;;8.50;100.00;101230.78;5053895;27;100871;-31
2022/12/26 08:26:43;;;;;;;3.88;1.38;;;;;;;8.49;100.00;101220.97;5055512;27;96622;-30
2022/12/26 08:29:09;;;;;;;1.88;0.93;;;;;;;8.49;100.00;101234.47;5055788;27;96823;-31
2022/12/26 08:31:34;;;;;;;3.58;1.10;;;;;;;8.50;100.00;101247.88;5053587;27;101097;-32
2022/12/26 08:34:00;;;;;;;1.33;0.85;;;;;;;8.49;100.00;101251.53;5055815;27;97270;-30
2022/12/26 08:36:25;;;;;;;5.10;1.23;;;;;;;8.46;100.00;101262.47;5055927;27;96535;-32
2022/12/26 08:38:50;;;;;;;2.22;1.10;;;;;;;8.46;100.00;101258.88;5054709;27;96611;-31
2022/12/26 08:41:16;;;;;;;4.45;2.03;;;;;;;8.46;100.00;101262.47;5054661;27;97933;-30
2022/12/26 08:43:42;;;;;;;4.00;1.38;;;;;;;8.47;100.00;101271.44;5053445;27;98163;-31
2022/12/26 08:46:10;;;;;;;3.25;1.27;;;;;;;8.48;100.00;101282.16;5055635;27;96717;-31
2022/12/26 08:48:37;;;;;;;1.33;1.23;;;;;;;8.47;100.00;101280.41;5054038;27;97347;-31
2022/12/26 08:51:07;;;;;;;3.72;0.98;;;;;;;8.46;100.00;101288.56;5053507;27;100759;-32
2022/12/26 08:53:37;;;;;;;1.38;0.90;;;;;;;8.46;100.00;101302.97;5053580;27;101030;-30
2022/12/26 08:56:05;;;;;;;1.10;0.80;;;;;;;8.46;100.00;101304.78;5054853;27;97354;-31
2022/12/26 08:58:32;;;;;;;1.02;0.68;;;;;;;8.44;100.00;101314.78;5054101;27;96795;-33
2022/12/26 09:01:14;;;;;;;3.33;1.02;;;;;;;8.44;100.00;101328.28;5053333;27;101222;-31
2022/12/26 09:03:40;;;;;;;0.88;0.40;;;;;;;8.38;100.00;101332.09;5053451;27;101164;-30
2022/12/26 09:06:06;;;;;;;1.83;0.65;;;;;;;8.38;100.00;101331.22;5053024;27;96696;-31
2022/12/26 09:08:33;;;;;;;5.68;0.90;;;;;;;8.40;100.00;101349.13;5053538;27;96848;-30
2022/12/26 09:11:06;;;;;;;1.00;0.65;;;;;;;8.38;100.00;101342.00;5053115;27;100911;-31
2022/12/26 09:13:33;;;;;;;0.32;0.30;;;;;;;8.37;100.00;101351.06;5053400;27;100786;-30
2022/12/26 09:16:04;;;;;;;1.23;0.60;;;;;;;8.40;100.00;101357.22;5053584;27;96797;-30
2022/12/26 09:18:30;;;;;;;0.65;0.35;;;;;;;8.38;100.00;101359.06;5053612;27;96873;-31
2022/12/26 09:20:59;;;;;;;5.45;0.55;;;;;;;8.38;100.00;101379.81;5054794;27;97944;-31
2022/12/26 09:23:25;;;;;;;1.27;0.40;;;;;;;8.35;100.00;101390.75;5052796;27;100968;-31
2022/12/26 09:25:50;;;;;;;5.45;0.70;;;;;;;8.27;100.00;101399.16;5055051;27;96492;-32
2022/12/26 09:28:16;;;;;;;5.72;0.80;;;;;;;8.25;100.00;101417.25;5054776;27;96588;-31
2022/12/26 09:30:43;;;;;;;3.22;0.50;;;;;;;8.18;100.00;101415.75;5054017;27;98063;-31
2022/12/26 09:33:09;;;;;;;1.02;0.32;;;;;;;8.16;100.00;101437.41;5054113;27;99367;-30
2022/12/26 09:35:34;;;;;;;3.42;0.77;;;;;;;8.11;100.00;101435.84;5055166;27;96478;-30
2022/12/26 09:38:00;;;;;;;2.83;0.50;;;;;;;8.06;100.00;101446.84;5054487;27;96827;-33
2022/12/26 09:40:32;;;;;;;4.90;0.32;;;;;;;7.98;100.00;101451.66;5054313;27;99343;-31
2022/12/26 09:43:26;;;;;;;1.40;0.47;;;;;;;7.93;100.00;101465.31;5053011;27;101127;-31
2022/12/26 09:46:10;;;;;;;0.22;0.22;;;;;;;7.91;100.00;101480.69;5055019;27;96504;-31
2022/12/26 09:48:46;;;;;;;8.48;0.63;;;;;;;7.82;99.97;101467.59;5053492;27;96691;-31
2022/12/26 09:51:11;;;;;;;1.35;0.35;;;;;;;7.76;99.77;101479.47;5054551;27;100961;-31
2022/12/26 09:53:40;;;;;;;1.00;0.25;;;;;;;7.75;99.64;101488.53;5057870;27;97824;-32
2022/12/26 09:56:10;;;;;;;1.98;0.30;;;;;;;7.77;99.84;101486.66;5057341;27;96595;-30
2022/12/26 09:59:10;;;;;;;1.20;0.60;;;;;;;7.79;99.99;101490.13;5056141;27;96792;-31
2022/12/26 10:01:35;;;;;;;0.38;0.10;;;;;;;7.72;98.73;101487.75;5056147;27;101307;-30
2022/12/26 10:04:15;;;;;;;0.65;0.32;;;;;;;7.70;98.58;101500.41;5056082;27;101443;-31
2022/12/26 10:06:47;;;;;;;1.13;0.80;;;;;;;7.61;97.33;101497.16;5056376;27;96685;-31
2022/12/26 10:09:26;;;;;;;;;;;;;;;7.60;97.25;101505.28;5056901;27;96672;-31
2022/12/26 10:12:04;;;;;;;4.05;0.73;;;;;;;7.58;97.64;101508.06;5057625;27;98060;-30
2022/12/26 10:14:35;;;;;;;2.40;0.60;;;;;;;7.55;96.85;101512.69;5057711;27;99133;-31
2022/12/26 10:17:17;;;;;;;6.43;0.50;;;;;;;7.59;98.00;101514.31;5056290;27;96632;-31
2022/12/26 10:19:59;;;;;;;0.38;0.13;;;;;;;7.57;97.78;101519.75;5056415;27;96726;-31
2022/12/26 10:22:44;;;;;;;3.63;0.35;;;;;;;7.58;97.26;101513.47;5056316;27;97384;-31
2022/12/26 10:25:25;;;;;;;1.42;0.40;;;;;;;7.51;96.59;101516.41;5057306;27;97870;-30
2022/12/26 10:27:51;;;;;;;0.10;0.10;;;;;;;7.48;96.46;101520.13;5057325;27;96676;-32
2022/12/26 10:30:24;;;;;;;0.10;0.10;;;;;;;7.49;97.07;101535.38;5057189;27;96808;-31
2022/12/26 10:32:55;;;;;;;1.20;0.47;;;;;;;7.48;97.34;101547.06;5055481;27;100936;-31
2022/12/26 10:35:34;;;;;;;0.25;0.20;;;;;;;7.49;97.56;101562.31;5055817;27;100860;-33
2022/12/26 10:38:26;;;;;;;0.22;0.17;;;;;;;7.48;97.47;101565.06;5056110;27;96573;-31
2022/12/26 10:40:55;;;;;;;1.73;0.30;;;;;;;7.49;96.97;101573.09;5047871;27;96892;-31
2022/12/26 10:43:27;;;;;;;0.52;0.30;;;;;;;7.44;96.53;101572.41;5055549;27;100825;-31
2022/12/26 10:46:23;;;;;;;1.25;0.35;;;;;;;7.37;95.27;101581.66;5055643;27;99050;-30
2022/12/26 10:48:49;;;;;;;5.13;0.45;;;;;;;7.38;95.96;101583.38;5056546;27;96436;-30
2022/12/26 10:51:15;;;;;;;0.77;0.50;;;;;;;7.37;95.43;101578.94;5056852;27;96795;-30
2022/12/26 10:53:45;;;;;;;0.35;0.15;;;;;;;7.35;95.19;101583.50;5055535;27;101015;-31
2022/12/26 10:56:11;;;;;;;3.17;1.15;;;;;;;7.39;95.48;101586.03;5055434;27;101185;-32
2022/12/26 10:58:38;;;;;;;0.35;0.22;;;;;;;7.40;96.02;101585.09;5056895;27;96567;-31
2022/12/26 11:01:27;;;;;;;3.70;0.65;;;;;;;7.45;95.47;101584.94;5055393;27;96764;-31
2022/12/26 11:03:54;;;;;;;0.43;0.20;;;;;;;7.47;95.05;101580.38;5042662;27;97601;-30
2022/12/26 11:06:22;;;;;;;5.30;0.47;;;;;;;7.44;94.02;101586.75;5055469;27;100970;-31
2022/12/26 11:08:48;;;;;;;5.25;0.65;;;;;;;7.44;93.43;101584.06;5055442;27;96605;-31
2022/12/26 11:11:17;;;;;;;3.10;0.57;;;;;;;7.49;94.19;101593.78;5055291;27;96796;-31
2022/12/26 11:13:53;;;;;;;5.72;0.40;;;;;;;7.52;94.68;101599.94;5055852;27;97991;-30
2022/12/26 11:16:25;;;;;;;3.20;0.40;;;;;;;7.57;94.89;101600.66;5056629;27;97275;-31
2022/12/26 11:18:51;;;;;;;0.40;0.20;;;;;;;7.59;94.90;101604.16;5055389;27;96714;-31
2022/12/26 11:21:16;;;;;;;1.70;0.40;;;;;;;7.54;92.35;101608.84;5056357;27;96788;-31
2022/12/26 11:23:43;;;;;;;5.70;0.32;;;;;;;7.46;91.24;101605.56;5056097;27;97576;-30
2022/12/26 11:26:24;;;;;;;0.85;0.38;;;;;;;7.50;92.19;101609.91;5054551;27;100955;-31
2022/12/26 11:29:17;;;;;;;1.03;0.53;;;;;;;7.53;93.07;101625.97;5056655;27;96445;-32
2022/12/26 11:31:52;;;;;;;0.25;0.20;;;;;;;7.45;93.22;101623.53;5055179;27;96687;-33
2022/12/26 11:34:44;;;;;;;0.47;0.17;;;;;;;7.48;91.79;101629.75;5055812;27;99204;-31
2022/12/26 11:37:26;;;;;;;;;;;;;;;7.49;91.59;101640.50;5055090;27;101304;-33
2022/12/26 11:39:52;;;;;;;0.17;0.10;;;;;;;7.47;89.89;101644.19;5055815;27;96567;-31
2022/12/26 11:42:21;;;;;;;2.25;0.25;;;;;;;7.47;89.67;101639.66;5054833;27;96871;-31
2022/12/26 11:44:51;;;;;;;0.40;0.40;;;;;;;7.54;90.81;101635.81;5054237;27;100977;-31
2022/12/26 11:47:19;;;;;;;0.47;0.20;;;;;;;7.64;89.84;101626.44;5054438;27;99865;-31
2022/12/26 11:49:58;;;;;;;0.00;0.00;;;;;;;7.82;87.54;101632.09;5054734;27;96702;-31
2022/12/26 11:52:37;;;;;;;0.30;0.30;;;;;;;8.08;86.33;101639.22;5054930;27;96716;-31
2022/12/26 11:55:29;;;;;;;0.28;0.22;;;;;;;8.16;85.78;101641.63;5054501;27;100830;-31
2022/12/26 11:58:07;;;;;;;1.10;0.17;;;;;;;7.87;86.30;101647.16;5054892;27;99470;-31
2022/12/26 12:00:34;;;;;;;0.77;0.20;;;;;;;7.68;85.74;101650.63;5055864;27;96437;-32
2022/12/26 12:03:00;;;;;;;0.08;0.08;;;;;;;7.55;86.29;101645.66;5054608;27;96759;-30
2022/12/26 12:05:32;;;;;;;0.50;0.30;;;;;;;7.51;86.95;101649.41;5053823;27;98924;-31
2022/12/26 12:08:14;;;;;;;0.17;0.17;;;;;;;7.56;87.46;101657.34;5055428;27;99790;-31
2022/12/26 12:10:47;;;;;;;0.00;0.00;;;;;;;7.66;86.21;101659.63;5054511;27;96815;-30
2022/12/26 12:13:22;;;;;;;0.20;0.10;;;;;;;7.82;84.27;101657.25;5054330;27;96801;-31
2022/12/26 12:16:23;;;;;;;0.80;0.17;;;;;;;7.83;83.93;101653.59;5054321;27;100926;-31
2022/12/26 12:19:12;;;;;;;0.25;0.20;;;;;;;7.92;84.94;101655.09;5054026;27;100616;-31
2022/12/26 12:21:54;;;;;;;12.63;0.30;;;;;;;7.96;84.56;101656.75;5054299;27;96846;-31
2022/12/26 12:24:43;;;;;;;0.17;0.17;;;;;;;8.06;81.43;101671.63;5056225;27;96498;-30
2022/12/26 12:27:34;;;;;;;0.10;0.10;;;;;;;8.08;82.39;101664.38;5055461;27;97742;-31
2022/12/26 12:30:15;;;;;;;1.67;0.57;;;;;;;8.30;81.29;101674.34;5055406;27;97341;-30
2022/12/26 12:32:52;;;;;;;0.22;0.17;;;;;;;8.35;80.71;101683.13;5053444;27;96717;-32
2022/12/26 12:35:36;;;;;;;0.17;0.13;;;;;;;8.48;79.03;101675.47;5055596;27;96472;-31
2022/12/26 12:38:20;;;;;;;0.75;0.30;;;;;;;8.32;78.49;101672.47;5055307;27;97433;-31
2022/12/26 12:41:30;;;;;;;0.00;0.00;;;;;;;8.37;79.91;101673.16;5054999;27;99583;-31
2022/12/26 12:44:11;;;;;;;0.77;0.30;;;;;;;8.65;79.25;101675.69;5051249;27;96802;-31
2022/12/26 12:47:12;;;;;;;1.15;0.45;;;;;;;8.77;77.32;101684.22;5054078;27;96613;-31
2022/12/26 12:49:57;;;;;;;0.10;0.10;;;;;;;8.82;76.64;101677.69;5053779;27;101007;-32
2022/12/26 12:52:31;;;;;;;0.35;0.25;;;;;;;9.13;75.69;101681.84;5055511;27;97874;-31
2022/12/26 12:55:05;;;;;;;5.13;0.50;;;;;;;9.20;75.11;101685.13;5055228;27;96502;-31
2022/12/26 12:57:44;;;;;;;0.40;0.20;;;;;;;9.23;74.73;101687.72;5055524;27;96713;-31
2022/12/26 13:00:12;;;;;;;0.35;0.30;;;;;;;9.00;75.97;101685.97;5053125;27;100744;-32
2022/12/26 13:02:44;;;;;;;0.47;0.25;;;;;;;8.42;77.68;101700.88;5053517;27;101265;-31
2022/12/26 13:05:38;;;;;;;2.55;0.57;;;;;;;8.43;78.43;101702.63;5053709;27;96595;-32
2022/12/26 13:08:13;;;;;;;0.10;0.10;;;;;;;8.47;77.98;101696.19;5054256;27;100014;-31
2022/12/26 13:10:56;;;;;;;0.98;0.22;;;;;;;8.20;78.88;101700.81;5053361;27;98839;-31
2022/12/26 13:13:43;;;;;;;0.05;0.05;;;;;;;7.95;80.42;101708.03;5053359;27;101151;-30
2022/12/26 13:16:15;;;;;;;0.73;0.28;;;;;;;7.79;80.83;101705.03;5053631;27;96652;-31
2022/12/26 13:18:54;;;;;;;0.20;0.08;;;;;;;7.62;82.03;101708.31;5055267;27;96783;-31
2022/12/26 13:21:21;;;;;;;0.38;0.22;;;;;;;7.52;82.08;101712.28;5053064;27;101211;-31
2022/12/26 13:27:03;;;;;;;0.10;0.10;;;;;;;7.34;82.60;101713.78;5057449;27;96710;-31
2022/12/26 13:29:44;;;;;;;1.85;0.35;;;;;;;8.17;81.97;101708.13;5057184;27;96701;-30
2022/12/26 13:32:27;;;;;;;1.70;0.45;;;;;;;8.65;78.09;101720.69;5056639;27;100781;-31
2022/12/26 13:34:55;;;;;;;0.73;0.47;;;;;;;8.96;76.19;101722.16;5056592;27;100844;-31
2022/12/26 13:37:36;;;;;;;0.20;0.13;;;;;;;8.85;75.46;101728.03;5056749;27;96688;-31
2022/12/26 13:40:18;;;;;;;1.00;0.25;;;;;;;8.79;75.14;101737.22;5058833;27;96793;-31
2022/12/26 13:45:36;;;;;;;2.35;0.35;;;;;;;8.15;76.49;101745.06;5058067;27;97046;-32
2022/12/26 13:48:21;;;;;;;0.68;0.20;;;;;;;7.93;77.97;101740.47;5058070;27;96446;-32
2022/12/26 13:50:56;;;;;;;1.75;0.13;;;;;;;7.63;76.72;101747.84;5057559;27;96893;-32
2022/12/26 13:53:24;;;;;;;3.53;0.20;;;;;;;7.45;75.90;101752.91;5057207;27;99564;-30
2022/12/26 13:56:03;;;;;;;0.10;0.10;;;;;;;7.39;77.67;101744.19;5057719;27;99197;-31